createdAt,value
2019-03-04T00:00:29.586Z,99.90
2019-03-04T00:05:34.970Z,99.90
2019-03-04T00:10:40.270Z,99.90
2019-03-04T00:15:45.132Z,99.90
2019-03-04T00:20:50.212Z,99.90
2019-03-04T00:25:55.380Z,99.90
2019-03-04T00:31:01.306Z,99.90
2019-03-04T00:36:06.304Z,99.90
2019-03-04T00:41:11.485Z,99.90
2019-03-04T00:46:16.863Z,99.90
2019-03-04T00:51:21.836Z,99.90
2019-03-04T00:56:27.102Z,99.90
2019-03-04T01:01:32.263Z,99.90
2019-03-04T01:06:37.458Z,99.90
2019-03-04T01:11:42.474Z,99.90
2019-03-04T01:16:47.976Z,99.90
2019-03-04T01:21:53.183Z,99.90
2019-03-04T01:26:58.460Z,99.90
2019-03-04T01:32:04.007Z,99.90
2019-03-04T01:37:09.139Z,99.80
2019-03-04T01:42:14.283Z,99.90
2019-03-04T01:47:19.871Z,99.90
2019-03-04T01:52:25.032Z,99.90
2019-03-04T01:57:30.070Z,99.90
2019-03-04T02:02:35.091Z,99.90
2019-03-04T02:07:40.685Z,99.90
2019-03-04T02:12:46.857Z,99.90
2019-03-04T02:17:52.747Z,99.90
2019-03-04T02:22:58.402Z,99.90
2019-03-04T02:28:03.378Z,99.90
2019-03-04T02:33:08.720Z,99.90
2019-03-04T02:38:13.967Z,99.90
2019-03-04T02:43:19.620Z,99.80
2019-03-04T02:48:25.010Z,99.70
2019-03-04T02:53:30.367Z,99.40
2019-03-04T02:58:35.959Z,99.30
2019-03-04T03:03:41.283Z,99.20
2019-03-04T03:08:46.419Z,99.10
2019-03-04T03:13:51.598Z,99.10
2019-03-04T03:18:57.150Z,99.10
2019-03-04T03:24:02.491Z,98.90
2019-03-04T03:29:07.637Z,98.80
2019-03-04T03:34:12.828Z,98.80
2019-03-04T03:39:17.957Z,98.80
2019-03-04T03:44:22.947Z,98.80
2019-03-04T03:49:28.075Z,98.60
2019-03-04T03:54:33.215Z,98.80
2019-03-04T03:59:38.385Z,98.90
2019-03-04T04:04:43.959Z,99.00
2019-03-04T04:09:49.104Z,98.80
2019-03-04T04:14:54.243Z,98.90
2019-03-04T04:19:59.531Z,99.10
2019-03-04T04:25:05.503Z,99.10
2019-03-04T04:30:14.847Z,98.90
2019-03-04T04:35:19.781Z,98.90
2019-03-04T04:40:25.153Z,98.80
2019-03-04T04:45:30.504Z,98.80
2019-03-04T04:50:35.507Z,98.90
2019-03-04T04:55:40.604Z,99.00
2019-03-04T05:00:46.176Z,98.90
2019-03-04T05:05:51.346Z,98.60
2019-03-04T05:10:56.330Z,98.60
2019-03-04T05:16:01.439Z,98.50
2019-03-04T05:21:06.858Z,98.10
2019-03-04T05:26:11.997Z,97.40
2019-03-04T05:46:55.222Z,96.60
2019-03-04T05:52:00.283Z,95.90
2019-03-04T05:57:05.323Z,95.90
2019-03-04T06:02:10.647Z,95.90
2019-03-04T06:07:17.435Z,95.70
2019-03-04T06:12:22.524Z,95.60
2019-03-04T06:17:27.390Z,95.30
2019-03-04T06:22:32.715Z,95.20
2019-03-04T06:27:37.980Z,95.20
2019-03-04T06:32:42.920Z,95.00
2019-03-04T06:37:47.905Z,94.90
2019-03-04T06:42:53.042Z,95.00
2019-03-04T06:47:58.360Z,94.80
2019-03-04T06:53:03.446Z,94.70
2019-03-04T06:58:08.809Z,94.80
2019-03-04T07:03:13.967Z,94.60
2019-03-04T07:08:22.110Z,94.10
2019-03-04T07:13:27.252Z,94.10
2019-03-04T07:18:32.391Z,94.20
2019-03-04T07:23:37.585Z,93.80
2019-03-04T07:28:42.791Z,93.50
2019-03-04T07:33:47.716Z,93.70
2019-03-04T07:38:54.751Z,94.00
2019-03-04T07:44:00.429Z,92.30
2019-03-04T07:49:05.891Z,92.00
2019-03-04T07:54:11.087Z,91.50
2019-03-04T07:59:16.198Z,91.10
2019-03-04T08:04:21.385Z,90.80
2019-03-04T08:09:29.504Z,90.40
2019-03-04T08:14:34.585Z,89.30
2019-03-04T08:19:39.580Z,88.90
2019-03-04T08:24:45.111Z,88.70
2019-03-04T08:29:49.966Z,86.20
2019-03-04T08:34:54.934Z,86.70
2019-03-04T08:40:00.328Z,86.10
2019-03-04T08:45:08.689Z,87.10
2019-03-04T08:50:16.026Z,84.50
2019-03-04T08:55:21.421Z,84.90
2019-03-04T09:00:28.820Z,83.20
2019-03-04T09:05:34.042Z,81.60
2019-03-04T09:10:38.901Z,84.10
2019-03-04T09:15:44.096Z,83.10
2019-03-04T09:20:49.699Z,79.70
2019-03-04T09:25:57.887Z,76.70
2019-03-04T09:31:03.156Z,76.50
2019-03-04T09:36:08.458Z,75.10
2019-03-04T09:41:13.767Z,75.00
2019-03-04T09:46:18.858Z,74.00
2019-03-04T09:51:24.799Z,73.60
2019-03-04T09:56:30.127Z,74.30
2019-03-04T10:01:37.979Z,72.80
2019-03-04T10:06:45.958Z,73.20
2019-03-04T10:11:54.039Z,72.80
2019-03-04T10:17:02.065Z,73.50
2019-03-04T10:22:09.944Z,74.50
2019-03-04T10:27:18.144Z,74.20
2019-03-04T10:32:26.420Z,74.00
2019-03-04T10:37:34.429Z,75.50
2019-03-04T10:42:40.786Z,75.00
2019-03-04T10:47:45.972Z,75.00
2019-03-04T10:52:50.928Z,76.60
2019-03-04T10:57:56.521Z,78.20
2019-03-04T11:03:01.742Z,78.70
2019-03-04T11:08:06.880Z,79.00
2019-03-04T11:13:11.952Z,80.00
2019-03-04T11:18:17.220Z,81.20
2019-03-04T11:23:22.457Z,84.10
2019-03-04T11:28:28.064Z,87.60
2019-03-04T11:33:34.122Z,88.30
2019-03-04T11:38:42.311Z,90.20
2019-03-04T11:43:47.781Z,90.10
2019-03-04T11:48:53.051Z,88.90
2019-03-04T11:53:58.572Z,88.40
2019-03-04T11:59:03.596Z,86.90
2019-03-04T12:04:09.274Z,85.80
2019-03-04T12:09:15.668Z,84.20
2019-03-04T12:14:20.955Z,83.00
2019-03-04T12:19:26.114Z,80.50
2019-03-04T12:24:30.894Z,80.20
2019-03-04T12:29:35.760Z,79.00
2019-03-04T12:34:41.396Z,79.00
2019-03-04T12:39:46.616Z,79.40
2019-03-04T12:44:51.536Z,79.10
2019-03-04T12:49:56.822Z,79.20
2019-03-04T12:55:01.967Z,75.30
2019-03-04T13:00:10.216Z,73.60
2019-03-04T13:05:15.642Z,71.60
2019-03-04T13:10:21.549Z,71.30
2019-03-04T13:15:29.148Z,69.90
2019-03-04T13:20:35.928Z,67.00
2019-03-04T13:25:41.721Z,68.50
2019-03-04T13:30:46.793Z,66.60
2019-03-04T13:35:52.065Z,67.40
2019-03-04T13:40:57.520Z,67.30
2019-03-04T13:46:02.507Z,68.80
2019-03-04T13:51:08.241Z,68.90
2019-03-04T13:56:13.111Z,69.90
2019-03-04T14:01:18.133Z,70.40
2019-03-04T14:06:23.468Z,70.90
2019-03-04T14:11:28.799Z,71.50
2019-03-04T14:16:33.953Z,71.30
2019-03-04T14:21:39.012Z,71.20
2019-03-04T14:26:44.478Z,71.40
2019-03-04T14:31:49.518Z,71.00
2019-03-04T14:36:55.063Z,71.00
2019-03-04T14:42:00.170Z,71.10
2019-03-04T14:47:05.283Z,70.20
2019-03-04T14:52:10.603Z,70.00
2019-03-04T14:57:15.564Z,69.40
2019-03-04T15:02:20.588Z,68.20
2019-03-04T15:07:25.474Z,67.80
2019-03-04T15:12:30.409Z,66.50
2019-03-04T15:17:35.470Z,65.60
2019-03-04T15:22:40.625Z,63.90
2019-03-04T15:27:45.681Z,61.80
2019-03-04T15:32:50.758Z,61.80
2019-03-04T15:37:56.032Z,60.60
2019-03-04T15:43:03.168Z,61.00
2019-03-04T15:48:07.964Z,61.90
2019-03-04T15:53:13.105Z,66.40
2019-03-04T15:58:18.163Z,71.90
2019-03-04T16:03:23.313Z,75.30
2019-03-04T16:08:28.350Z,77.00
2019-03-04T16:13:33.633Z,76.60
2019-03-04T16:18:38.890Z,75.20
2019-03-04T16:23:44.033Z,72.30
2019-03-04T16:28:49.514Z,72.80
2019-03-04T16:33:54.543Z,73.70
2019-03-04T16:38:59.904Z,74.50
2019-03-04T16:44:05.053Z,75.70
2019-03-04T16:49:10.205Z,75.80
2019-03-04T16:54:15.546Z,76.40
2019-03-04T16:59:21.004Z,77.20
2019-03-04T17:04:26.678Z,77.40
2019-03-04T17:09:31.846Z,77.40
2019-03-04T17:14:36.912Z,77.40
2019-03-04T17:19:42.174Z,78.00
2019-03-04T17:24:47.343Z,78.30
2019-03-04T17:29:52.680Z,78.60
2019-03-04T17:34:57.832Z,78.90
2019-03-04T17:40:02.885Z,79.20
2019-03-04T17:45:11.076Z,79.30
2019-03-04T17:50:19.528Z,79.20
2019-03-04T17:55:24.830Z,79.50
2019-03-04T18:00:31.223Z,78.30
2019-03-04T18:05:36.754Z,75.80
2019-03-04T18:10:41.931Z,72.50
2019-03-04T18:15:47.509Z,70.70
2019-03-04T18:20:53.029Z,69.20
2019-03-04T18:26:00.792Z,69.50
2019-03-04T18:31:09.453Z,68.80
2019-03-04T18:36:17.785Z,69.30
2019-03-04T18:41:27.345Z,69.70
2019-03-04T18:46:35.625Z,70.00
2019-03-04T18:51:41.748Z,68.40
2019-03-04T18:56:47.600Z,66.00
2019-03-04T19:01:52.353Z,64.00
2019-03-04T19:06:57.435Z,60.90
2019-03-04T19:12:02.585Z,59.40
2019-03-04T19:17:07.973Z,58.90
2019-03-04T19:22:13.443Z,58.20
2019-03-04T19:27:18.572Z,58.20
2019-03-04T19:32:23.803Z,58.40
2019-03-04T19:37:29.102Z,58.30
2019-03-04T19:42:34.245Z,58.30
2019-03-04T19:47:39.503Z,58.40
2019-03-04T19:52:44.761Z,58.00
2019-03-04T19:57:49.588Z,58.10
2019-03-04T20:03:09.978Z,57.50
2019-03-04T20:08:16.328Z,58.30
2019-03-04T20:13:21.553Z,64.30
2019-03-04T20:18:26.861Z,70.80
2019-03-04T20:23:31.787Z,74.70
2019-03-04T20:28:37.269Z,76.10
2019-03-04T20:33:44.833Z,75.30
2019-03-04T20:38:49.432Z,78.50
2019-03-04T20:43:54.437Z,82.20
2019-03-04T20:48:59.376Z,84.00
2019-03-04T20:54:04.716Z,84.90
2019-03-04T20:59:10.040Z,82.90
2019-03-04T21:04:15.155Z,81.70
2019-03-04T21:09:21.154Z,81.40
2019-03-04T21:14:27.911Z,81.50
2019-03-04T21:19:33.378Z,82.20
2019-03-04T21:24:38.872Z,82.00
2019-03-04T21:29:46.978Z,82.90
2019-03-04T21:34:55.110Z,83.70
2019-03-04T21:40:03.232Z,84.70
2019-03-04T21:45:11.341Z,85.50
2019-03-04T21:50:19.374Z,86.70
2019-03-04T21:55:27.376Z,87.00
2019-03-04T22:00:35.646Z,86.90
2019-03-04T22:05:49.752Z,86.90
2019-03-04T22:10:48.705Z,87.30
2019-03-04T22:15:53.857Z,87.00
2019-03-04T22:20:59.016Z,86.90
2019-03-04T22:26:04.680Z,87.20
2019-03-04T22:31:09.969Z,87.40
2019-03-04T22:36:34.304Z,86.90
2019-03-04T22:41:39.500Z,87.00
2019-03-04T22:46:44.499Z,86.70
2019-03-04T22:52:08.858Z,86.50
2019-03-04T22:57:14.599Z,86.80
2019-03-04T23:02:20.161Z,86.60
2019-03-04T23:07:25.798Z,86.00
2019-03-04T23:12:34.009Z,85.90
2019-03-04T23:17:39.320Z,86.10
2019-03-04T23:22:44.512Z,85.30
2019-03-04T23:27:50.329Z,85.00
2019-03-04T23:32:55.670Z,83.80
2019-03-04T23:38:01.163Z,83.80
2019-03-04T23:43:06.182Z,83.40
2019-03-04T23:48:11.043Z,83.00
2019-03-04T23:53:16.389Z,82.50
2019-03-04T23:58:21.222Z,82.70
